Elliot Chaparral Reserve, California Weather observations

Data are for 10 minute period ending at time listed.
 Day   Time   Solar   Ave.   Ave.  Ave.  Vector  Max.   Baro.   Total    
  of    of     Rad.   Air    Rel.  Wind   Wind   Wind  Press.  Precip.   
Year   Day            Temp.  Hum.  Speed  Dir.   Gust                    
2014   (PST)  Kw/m2    F      %     mph   deg.    mph    mb.     in.     
-------------------------------------------------------------------------
 295    7:00   0.16   61.0    88    7.1    72     8.8   984.4    0.00 
 295    7:10   0.19   62.3    86    5.5    60     8.5   984.5    0.00 
 295    7:20   0.22   63.6    81    6.6    58     8.6   984.7    0.00 
 295    7:30   0.25   65.2    73    6.4    62     8.3   984.9    0.00 
 295    7:40   0.29   66.7    62    6.1    66     7.5   985.0    0.00 
 295    7:50   0.32   68.6    53    6.2    77     7.6   985.0    0.00 
 295    8:00   0.35   70.3    47    5.5    87     7.5   985.1    0.00 
 295    8:10   0.38   71.7    44    4.4   102     5.8   985.1    0.00 
 295    8:20   0.41   72.3    47    2.9    34     5.0   985.1    0.00 
 295    8:30   0.44   71.5    57    3.4   342     4.7   985.1    0.00 
 295    8:40   0.47   72.1    50    3.6   351     5.4   985.1    0.00 
 295    8:50   0.50   73.0    49    3.4   341     4.8   985.1    0.00 
 295    9:00   0.53   74.1    48    3.4   334     5.2   985.0    0.00 
 295    9:10   0.55   74.5    50    3.9   316     6.4   985.0    0.00 
 295    9:20   0.57   74.3    50    3.6   306     6.1   984.9    0.00 
 295    9:30   0.60   75.5    48    4.4   319     7.1   984.8    0.00 
 295    9:40   0.62   75.6    48    3.9   298     7.5   984.6    0.00 
 295    9:50   0.64   76.8    46    3.6   290     6.9   984.5    0.01 
 295   10:00   0.65   77.9    43    2.8   288     6.9   984.4    0.00 
 295   10:10   0.67   79.4    40    3.6   255     9.9   984.3    0.00 
 295   10:20   0.68   79.2    38    4.3   265     9.2   984.2    0.00 
 295   10:30   0.70   79.8    38    6.2   289    12.1   984.3    0.00 
 295   10:40   0.71   80.1    36    4.7   288     8.3   984.2    0.00 
 295   10:50   0.72   80.9    33    4.6   254     9.0   984.1    0.00 
 295   11:00   0.72   82.3    30    6.8   254     9.6   984.0    0.00 
 295   11:10   0.73   83.3    28    5.5   241    11.5   983.8    0.00 
 295   11:20   0.73   83.2    28    7.4   266    12.3   983.8    0.00 
 295   11:30   0.71   83.7    29    8.4   284    14.2   983.7    0.00 
 295   11:40   0.74   84.5    29    9.0   285    12.9   983.5    0.00 
 295   11:50   0.73   83.9    32    8.8   281    13.2   983.4    0.00 
 295   12:00   0.72   83.0    36    9.4   289    13.6   983.4    0.00 
 295   12:10   0.72   82.4    40   10.9   276    14.8   983.3    0.00 
 295   12:20   0.71   82.1    42    9.9   275    14.2   983.3    0.00 
 295   12:30   0.66   80.7    45   10.9   280    14.4   983.3    0.00 
 295   12:40   0.71   80.5    44   10.8   285    14.7   983.3    0.00 
 295   12:50   0.69   80.2    45   11.3   285    16.3   983.2    0.00 
 295   13:00   0.67   79.7    46   12.0   285    15.7   983.1    0.00 
 295   13:10   0.66   79.8    46   11.9   278    14.8   983.1    0.00 
 295   13:20   0.65   79.1    47   11.7   306    15.3   983.1    0.00 
 295   13:30   0.63   78.2    45   10.5   299    13.6   983.1    0.00 
 295   13:40   0.60   78.9    46   11.9   285    15.5   983.1    0.00 
 295   13:50   0.46   78.2    49   10.0   284    14.2   983.2    0.00 
 295   14:00   0.26   76.7    52   11.0   286    15.1   983.2    0.00 
 295   14:10   0.29   75.8    54   10.2   286    13.7   983.2    0.00 
 295   14:20   0.53   77.7    52    9.2   288    11.9   983.3    0.00 
 295   14:30   0.48   77.6    52    9.5   278    12.7   983.3    0.00 
 295   14:40   0.42   77.7    51    9.0   287    12.6   983.4    0.00 
 295   14:50   0.42   78.4    49    7.9   310    10.0   983.4    0.00 
 295   15:00   0.40   78.1    50    7.4   315    10.4   983.3    0.00 
 295   15:10   0.37   78.0    51    8.0   318    11.8   983.4    0.00 
 295   15:20   0.33   77.8    49    7.2   311     9.9   983.3    0.00 
 295   15:30   0.28   77.8    49    6.1   310     8.5   983.3    0.00 
 295   15:40   0.23   77.3    50    6.2   320     8.5   983.2    0.00 
 295   15:50   0.23   76.9    50    6.5   316     8.5   983.3    0.00 
 295   16:00   0.18   77.9    50    4.9   309     8.0   983.4    0.00 
 295   16:10   0.15   77.2    50    6.1   301     8.3   983.4    0.00 
 295   16:20   0.13   76.6    50    6.1   295     7.7   983.4    0.00 
 295   16:30   0.09   76.0    51    5.4   300     7.3   983.4    0.00 
 295   16:40   0.07   75.2    51    4.9   309     6.9   983.5    0.00 
 295   16:50   0.04   74.9    50    4.4   309     5.7   983.6    0.00 
 295   17:00   0.02   74.0    52    3.6   319     4.9   983.7    0.00 
 295   17:10   0.00   72.5    55    4.7   304     5.8   983.8    0.00 
 295   17:20   0.00   71.0    58    4.5   317     5.6   984.0    0.00 
 295   17:30   0.00   70.3    60    4.5   314     6.0   984.2    0.00 
 295   17:40   0.00   69.5    62    4.9   319     6.3   984.3    0.00 
 295   17:50   0.00   68.8    64    4.6   330     6.1   984.4    0.00 
 295   18:00   0.00   68.2    66    3.9   352     4.7   984.4    0.00 
 295   18:10   0.00   67.6    68    4.9   345     5.7   984.5    0.00 
 295   18:20   0.00   67.3    69    4.4   343     5.3   984.5    0.00 
 295   18:30   0.00   67.3    69    3.5   346     4.1   984.6    0.00 
 295   18:40   0.00   67.0    70    4.1   347     4.7   984.6    0.00 
 295   18:50   0.00   66.8    71    3.7   349     4.4   984.8    0.00 
 295   19:00   0.00   66.7    72    3.3   345     4.2   984.8    0.00 
 295   19:10   0.00   66.5    73    3.9   342     4.7   985.0    0.00 
 295   19:20   0.00   65.9    76    4.7   333     6.0   985.0    0.00 
 295   19:30   0.00   65.5    78    4.4   330     5.4   985.0    0.00 
 295   19:40   0.00   65.2    81    4.3   331     5.3   985.0    0.00 
 295   19:50   0.00   64.6    83    5.0   329     6.1   985.1    0.00 
 295   20:00   0.00   64.0    85    5.1   335     6.9   985.3    0.00 
 295   20:10   0.00   63.8    87    4.4   346     5.9   985.4    0.00 
 295   20:20   0.00   63.4    88    6.3   339     7.5   985.5    0.00 
 295   20:30   0.00   63.3    89    6.9   342     7.9   985.6    0.00 
 295   20:40   0.00   63.2    90    6.7   343     7.9   985.7    0.00 
 295   20:50   0.00   63.2    90    7.3   344     8.6   985.8    0.00 
 295   21:00   0.00   63.1    90    5.4   354     6.9   985.9    0.00 
 295   21:10   0.00   63.1    90    6.2   354     7.2   985.9    0.00 
 295   21:20   0.00   63.0    90    4.0     5     6.2   985.9    0.00 
 295   21:30   0.00   62.9    90    3.2    24     5.0   985.9    0.00 
 295   21:40   0.00   62.8    90    2.3    49     3.0   985.9    0.00 
 295   21:50   0.00   63.2    90    3.4    15     3.7   986.1    0.00 
 295   22:00   0.00   63.1    90    3.9     6     4.8   986.1    0.00 
 295   22:10   0.00   63.1    90    3.6    18     4.2   986.1    0.00 
 295   22:20   0.00   63.6    89    4.1    45     5.5   986.1    0.00 
 295   22:30   0.00   64.2    86    4.4    50     5.4   985.9    0.00 
 295   22:40   0.00   65.1    80    4.0    68     4.5   985.9    0.00 
 295   22:50   0.00   64.9    79    4.5    78     5.6   985.9    0.00 
 295   23:00   0.00   65.4    76    4.2    80     6.0   985.9    0.00 
 295   23:10   0.00   65.5    76    3.3    65     4.9   985.9    0.00 
 295   23:20   0.00   66.0    74    2.6    78     3.7   985.9    0.00 
 295   23:30   0.00   66.0    74    1.8   114     3.2   985.9    0.00 
 295   23:40   0.00   65.6    76    0.9   130     2.6   985.9    0.00 
 295   23:50   0.00   64.7    78    3.2   168     4.5   985.8    0.00 
 296    0:00   0.00   63.9    81    3.6   145     4.9   985.6    0.00 
 296    0:10   0.00   64.0    80    2.3   122     4.4   985.6    0.00 
 296    0:20   0.00   64.3    79    1.6    74     2.6   985.7    0.00 
 296    0:30   0.00   63.8    80    2.7   101     4.2   985.7    0.00 
 296    0:40   0.00   63.4    80    3.6    99     5.0   985.6    0.00 
 296    0:50   0.00   63.5    80    4.8   102     6.4   985.5    0.00 
 296    1:00   0.00   63.8    77    4.4    83     6.1   985.5    0.00 
 296    1:10   0.00   64.5    70    6.0    87     8.1   985.5    0.00 
 296    1:20   0.00   65.0    65    7.0    95     8.5   985.4    0.00 
 296    1:30   0.00   65.2    63    7.0    98     9.1   985.4    0.00 
 296    1:40   0.00   65.6    62    7.1    97     8.6   985.3    0.00 
 296    1:50   0.00   65.6    64    7.1    97     9.1   985.2    0.00 
 296    2:00   0.00   65.5    63    6.6    90     8.5   985.2    0.00 
 296    2:10   0.00   66.4    58    6.7    95     8.3   985.0    0.00 
 296    2:20   0.00   67.1    55    6.5   102     8.5   984.9    0.00 
 296    2:30   0.00   67.7    53    5.9    94     8.0   984.9    0.00 
 296    2:40   0.00   68.1    52    5.4    98     7.7   984.8    0.00 
 296    2:50   0.00   67.8    52    3.5    80     5.2   984.7    0.00 
 296    3:00   0.00   68.8    48    2.6    87     3.8   984.7    0.00 
 296    3:10   0.00   68.5    48    1.6   100     2.7   984.7    0.00 
 296    3:20   0.00   67.6    50    1.5   325     2.3   984.8    0.00 
 296    3:30   0.00   67.3    52    1.0   273     1.3   984.7    0.00 
 296    3:40   0.00   66.2    55    2.1   228     2.9   984.7    0.00 
 296    3:50   0.00   65.7    55    1.4   221     2.6   984.8    0.00 
 296    4:00   0.00   65.7    55    1.2    17     3.3   984.9    0.00 
 296    4:10   0.00   66.4    54    3.0   353     3.9   984.9    0.00 
 296    4:20   0.00   66.2    54    3.1     1     3.7   984.9    0.00 
 296    4:30   0.00   66.2    54    2.0   357     2.9   985.0    0.00 
 296    4:40   0.00   66.5    55    0.8   352     1.8   985.1    0.00 
 296    4:50   0.00   66.6    53    0.9   352     1.8   985.1    0.00 
 296    5:00   0.00   66.6    50    1.7    68     2.3   985.1    0.00 
 296    5:10   0.00   66.8    48    2.2   100     3.2   985.1    0.00 
 296    5:20   0.00   66.5    47    3.7   111     5.0   985.2    0.00 
 296    5:30   0.00   66.2    47    4.5   104     6.4   985.2    0.00 
 296    5:40   0.00   66.6    45    4.3   103     6.5   985.2    0.00 
 296    5:50   0.00   66.5    44    4.7    82     8.9   985.2    0.00 
 296    6:00   0.00   66.4    43    8.3    97     9.7   985.2    0.00 
 296    6:10   0.00   67.2    41    8.7   100    11.0   985.4    0.00 
 296    6:20   0.02   69.3    37    8.7   111    11.4   985.5    0.00 
 296    6:30   0.05   69.5    37    5.9   115     8.6   985.6    0.00 
 296    6:40   0.08   70.4    32    5.5   117     7.8   985.8    0.00 
 296    6:50   0.11   71.3    30    4.0   112     6.8   985.9    0.00 

Return to Elliot Chaparral Reserve graphs page.


Western Regional Climate Center,wrcc@dri.edu